createdAt,value
2018-08-04T00:02:11.806Z,23.89
2018-08-04T00:04:41.660Z,23.87
2018-08-04T00:07:11.579Z,23.83
2018-08-04T00:09:41.504Z,23.88
2018-08-04T00:12:11.871Z,23.81
2018-08-04T00:14:41.753Z,23.76
2018-08-04T00:17:11.554Z,23.74
2018-08-04T00:19:41.391Z,23.70
2018-08-04T00:22:11.271Z,23.64
2018-08-04T00:24:41.236Z,23.55
2018-08-04T00:27:11.080Z,23.41
2018-08-04T00:29:40.929Z,23.36
2018-08-04T00:32:10.768Z,23.38
2018-08-04T00:34:40.723Z,23.49
2018-08-04T00:37:10.971Z,23.58
2018-08-04T00:39:40.859Z,23.62
2018-08-04T00:42:10.727Z,23.65
2018-08-04T00:44:40.632Z,23.65
2018-08-04T00:47:10.576Z,23.62
2018-08-04T00:49:40.487Z,23.51
2018-08-04T00:52:10.473Z,23.41
2018-08-04T00:54:40.376Z,23.35
2018-08-04T00:57:10.439Z,23.44
2018-08-04T00:59:40.392Z,23.49
2018-08-04T01:02:10.291Z,23.47
2018-08-04T01:04:40.196Z,23.37
2018-08-04T01:07:10.010Z,23.34
2018-08-04T01:09:40.131Z,23.19
2018-08-04T01:12:10.080Z,23.22
2018-08-04T01:14:39.896Z,23.22
2018-08-04T01:17:09.768Z,23.09
2018-08-04T01:19:39.802Z,23.10
2018-08-04T01:22:09.750Z,23.13
2018-08-04T01:24:39.668Z,23.15
2018-08-04T01:27:09.563Z,23.08
2018-08-04T01:29:39.464Z,23.03
2018-08-04T01:32:09.309Z,23.05
2018-08-04T01:34:39.177Z,23.08
2018-08-04T01:37:09.271Z,23.09
2018-08-04T01:39:39.263Z,23.08
2018-08-04T01:42:09.259Z,22.99
2018-08-04T01:44:39.085Z,22.90
2018-08-04T01:47:08.979Z,22.85
2018-08-04T01:49:38.880Z,22.75
2018-08-04T01:52:08.800Z,22.69
2018-08-04T01:54:38.848Z,22.78
2018-08-04T01:57:08.659Z,22.87
2018-08-04T01:59:38.606Z,22.82
2018-08-04T02:02:08.504Z,22.83
2018-08-04T02:04:38.449Z,22.84
2018-08-04T02:07:08.354Z,22.89
2018-08-04T02:09:38.315Z,22.85
2018-08-04T02:12:08.259Z,22.75
2018-08-04T02:14:38.284Z,22.60
2018-08-04T02:17:08.164Z,22.50
2018-08-04T02:19:38.063Z,22.48
2018-08-04T02:22:07.940Z,22.55
2018-08-04T02:24:37.911Z,22.68
2018-08-04T02:27:07.908Z,22.69
2018-08-04T02:29:37.877Z,22.71
2018-08-04T02:32:07.727Z,22.71
2018-08-04T02:34:37.608Z,22.71
2018-08-04T02:37:07.541Z,22.75
2018-08-04T02:39:37.345Z,22.66
2018-08-04T02:42:07.256Z,22.60
2018-08-04T02:44:37.226Z,22.63
2018-08-04T02:47:07.148Z,22.61
2018-08-04T02:49:37.003Z,22.61
2018-08-04T02:52:06.940Z,22.64
2018-08-04T02:54:36.822Z,22.62
2018-08-04T02:57:06.724Z,22.54
2018-08-04T02:59:36.645Z,22.50
2018-08-04T03:02:06.855Z,22.48
2018-08-04T03:04:36.899Z,22.47
2018-08-04T03:07:06.816Z,22.51
2018-08-04T03:09:36.674Z,22.69
2018-08-04T03:12:07.036Z,22.85
2018-08-04T03:14:36.850Z,23.03
2018-08-04T03:17:06.829Z,23.21
2018-08-04T03:19:36.648Z,23.35
2018-08-04T03:22:06.707Z,23.50
2018-08-04T03:24:36.613Z,23.76
2018-08-04T03:27:06.504Z,23.88
2018-08-04T03:29:36.455Z,23.89
2018-08-04T03:32:06.402Z,23.90
2018-08-04T03:34:36.447Z,23.91
2018-08-04T03:37:06.489Z,23.92
2018-08-04T03:39:36.623Z,24.03
2018-08-04T03:42:06.649Z,24.04
2018-08-04T03:44:36.564Z,24.15
2018-08-04T03:47:06.876Z,24.14
2018-08-04T03:49:36.738Z,24.16
2018-08-04T03:52:06.690Z,24.14
2018-08-04T03:54:36.649Z,24.18
2018-08-04T03:57:06.748Z,24.01
2018-08-04T03:59:36.604Z,23.92
2018-08-04T04:02:06.644Z,23.93
2018-08-04T04:04:36.568Z,24.00
2018-08-04T04:07:06.759Z,24.04
2018-08-04T04:09:36.749Z,24.11
2018-08-04T04:12:06.657Z,24.18
2018-08-04T04:14:36.536Z,24.29
2018-08-04T04:17:06.719Z,24.37
2018-08-04T04:19:36.844Z,24.42
2018-08-04T04:22:06.828Z,24.40
2018-08-04T04:24:36.775Z,24.41
2018-08-04T04:27:07.002Z,24.35
2018-08-04T04:29:43.243Z,24.42
2018-08-04T04:32:13.175Z,24.43
2018-08-04T04:34:43.125Z,24.40
2018-08-04T04:37:12.978Z,24.46
2018-08-04T04:39:42.941Z,24.49
2018-08-04T04:42:12.784Z,24.55
2018-08-04T04:44:42.600Z,24.54
2018-08-04T04:47:12.486Z,24.57
2018-08-04T04:49:42.634Z,24.59
2018-08-04T04:52:12.578Z,24.61
2018-08-04T04:54:42.507Z,24.53
2018-08-04T04:57:12.465Z,24.26
2018-08-04T04:59:42.312Z,23.88
2018-08-04T05:02:12.358Z,23.63
2018-08-04T05:04:42.237Z,23.40
2018-08-04T05:07:12.323Z,23.20
2018-08-04T05:09:42.135Z,22.88
2018-08-04T05:12:12.031Z,22.79
2018-08-04T05:14:42.111Z,22.58
2018-08-04T05:17:12.024Z,22.42
2018-08-04T05:19:42.025Z,22.40
2018-08-04T05:22:11.852Z,22.77
2018-08-04T05:24:41.805Z,23.14
2018-08-04T05:27:11.741Z,23.24
2018-08-04T05:29:41.682Z,23.33
2018-08-04T05:32:11.717Z,23.33
2018-08-04T05:34:41.646Z,23.52
2018-08-04T05:37:11.580Z,23.91
2018-08-04T05:39:41.584Z,24.24
2018-08-04T05:42:11.636Z,24.37
2018-08-04T05:44:41.584Z,24.55
2018-08-04T05:47:11.564Z,24.73
2018-08-04T05:49:41.424Z,24.90
2018-08-04T05:52:11.329Z,25.06
2018-08-04T05:54:41.459Z,25.19
2018-08-04T05:57:11.309Z,25.21
2018-08-04T05:59:41.114Z,25.15
2018-08-04T06:02:10.971Z,25.19
2018-08-04T06:04:40.848Z,25.34
2018-08-04T06:07:11.081Z,25.38
2018-08-04T06:09:47.240Z,25.22
2018-08-04T06:12:17.408Z,25.11
2018-08-04T06:14:47.347Z,25.08
2018-08-04T06:17:17.488Z,25.26
2018-08-04T06:19:47.491Z,25.22
2018-08-04T06:22:17.492Z,25.25
2018-08-04T06:24:47.549Z,25.55
2018-08-04T06:27:17.476Z,25.58
2018-08-04T06:29:47.465Z,25.47
2018-08-04T06:32:17.445Z,25.14
2018-08-04T06:34:47.340Z,24.64
2018-08-04T06:37:17.379Z,24.74
2018-08-04T06:39:47.271Z,24.29
2018-08-04T06:42:17.198Z,23.91
2018-08-04T06:44:47.055Z,23.74
2018-08-04T06:47:16.988Z,23.91
2018-08-04T06:49:46.965Z,24.08
2018-08-04T06:52:17.004Z,23.88
2018-08-04T06:54:47.112Z,23.63
2018-08-04T06:57:17.187Z,23.58
2018-08-04T06:59:47.121Z,23.53
2018-08-04T07:02:17.205Z,23.57
2018-08-04T07:04:47.213Z,23.71
2018-08-04T07:07:17.118Z,23.88
2018-08-04T07:09:47.093Z,24.00
2018-08-04T07:12:17.003Z,24.07
2018-08-04T07:14:46.913Z,24.14
2018-08-04T07:17:16.958Z,24.08
2018-08-04T07:19:46.817Z,24.38
2018-08-04T07:22:17.004Z,24.23
2018-08-04T07:24:47.080Z,24.50
2018-08-04T07:27:17.053Z,24.50
2018-08-04T07:29:47.032Z,24.50
2018-08-04T07:32:17.278Z,24.42
2018-08-04T07:34:47.284Z,24.83
2018-08-04T07:37:17.305Z,24.84
2018-08-04T07:39:47.481Z,25.18
2018-08-04T07:42:17.436Z,25.48
2018-08-04T07:44:47.416Z,25.74
2018-08-04T07:47:17.459Z,25.61
2018-08-04T07:49:47.407Z,25.84
2018-08-04T07:52:17.536Z,25.80
2018-08-04T07:54:47.466Z,25.79
2018-08-04T07:57:17.776Z,25.72
2018-08-04T07:59:47.731Z,26.10
2018-08-04T08:02:17.523Z,25.96
2018-08-04T08:04:47.597Z,25.80
2018-08-04T08:07:18.965Z,25.99
2018-08-04T08:09:48.970Z,26.00
2018-08-04T08:12:19.060Z,25.93
2018-08-04T08:14:49.246Z,26.13
2018-08-04T08:17:19.201Z,25.89
2018-08-04T08:19:49.078Z,26.11
2018-08-04T08:22:18.947Z,25.99
2018-08-04T08:24:49.008Z,26.27
2018-08-04T08:27:19.128Z,26.38
2018-08-04T08:29:49.090Z,26.45
2018-08-04T08:32:19.013Z,26.45
2018-08-04T08:34:49.205Z,26.39
2018-08-04T08:37:19.149Z,26.58
2018-08-04T08:39:49.159Z,26.70
2018-08-04T08:42:19.188Z,26.73
2018-08-04T08:44:49.071Z,26.76
2018-08-04T08:47:19.129Z,26.77
2018-08-04T08:49:49.211Z,26.38
2018-08-04T08:52:19.227Z,26.57
2018-08-04T08:54:49.389Z,26.55
2018-08-04T08:57:19.393Z,26.68
2018-08-04T08:59:49.551Z,26.89
2018-08-04T09:02:19.460Z,26.95
2018-08-04T09:04:49.516Z,26.36
2018-08-04T09:07:19.464Z,26.51
2018-08-04T09:09:49.403Z,26.61
2018-08-04T09:12:19.296Z,26.67
2018-08-04T09:14:50.062Z,26.72
2018-08-04T09:17:19.961Z,26.77
2018-08-04T09:19:49.824Z,26.63
2018-08-04T09:22:19.672Z,26.35
2018-08-04T09:24:49.629Z,26.35
2018-08-04T09:27:19.585Z,26.30
2018-08-04T09:29:49.480Z,26.22
2018-08-04T09:32:19.338Z,26.16
2018-08-04T09:34:49.303Z,26.07
2018-08-04T09:37:19.359Z,26.11
2018-08-04T09:39:49.221Z,26.19
2018-08-04T09:42:19.110Z,26.19
2018-08-04T09:44:49.032Z,26.22
2018-08-04T09:47:18.969Z,26.26
2018-08-04T09:49:48.867Z,26.10
2018-08-04T09:52:18.847Z,26.13
2018-08-04T09:54:48.839Z,26.31
2018-08-04T09:57:18.695Z,26.37
2018-08-04T09:59:48.515Z,26.48
2018-08-04T10:02:26.460Z,26.54
2018-08-04T10:04:57.319Z,26.46
2018-08-04T10:07:27.255Z,26.37
2018-08-04T10:09:57.162Z,26.39
2018-08-04T10:12:27.155Z,26.35
2018-08-04T10:14:57.027Z,26.43
2018-08-04T10:17:26.819Z,26.50
2018-08-04T10:19:56.631Z,26.59
2018-08-04T10:22:26.615Z,26.68
2018-08-04T10:24:56.801Z,26.64
2018-08-04T10:27:26.880Z,26.78
2018-08-04T10:29:56.867Z,26.69
2018-08-04T10:32:26.872Z,26.62
2018-08-04T10:34:56.679Z,26.66
2018-08-04T10:37:26.496Z,26.70
2018-08-04T10:39:56.438Z,26.62
2018-08-04T10:42:26.400Z,26.59
2018-08-04T10:44:56.421Z,26.65
2018-08-04T10:47:26.343Z,26.51
2018-08-04T10:49:56.267Z,26.52
2018-08-04T10:52:26.443Z,26.58
2018-08-04T10:54:56.447Z,26.60
2018-08-04T10:57:26.310Z,26.59
2018-08-04T10:59:56.291Z,26.63
2018-08-04T11:02:26.319Z,26.77
2018-08-04T11:04:56.325Z,26.72
2018-08-04T11:07:26.208Z,26.77
2018-08-04T11:09:56.107Z,26.71
2018-08-04T11:12:26.144Z,26.64
2018-08-04T11:14:56.251Z,26.75
2018-08-04T11:17:26.284Z,26.80
2018-08-04T11:19:56.284Z,26.88
2018-08-04T11:22:26.307Z,26.91
2018-08-04T11:24:56.446Z,26.96
2018-08-04T11:27:26.439Z,26.93
2018-08-04T11:29:56.512Z,27.02
2018-08-04T11:32:26.784Z,27.06
2018-08-04T11:34:56.698Z,26.98
2018-08-04T11:37:26.942Z,27.13
2018-08-04T11:39:57.226Z,26.98
2018-08-04T11:42:27.271Z,27.02
2018-08-04T11:44:57.174Z,27.01
2018-08-04T11:47:27.180Z,27.07
2018-08-04T11:49:57.225Z,26.93
2018-08-04T11:52:27.199Z,27.04
2018-08-04T11:54:57.053Z,27.05
2018-08-04T11:57:27.168Z,26.97
2018-08-04T11:59:57.114Z,26.99
2018-08-04T12:02:27.339Z,27.04
2018-08-04T12:04:57.503Z,26.97
2018-08-04T12:07:27.514Z,27.02
2018-08-04T12:09:57.640Z,26.86
2018-08-04T12:12:27.649Z,26.78
2018-08-04T12:14:57.627Z,26.83
2018-08-04T12:17:27.476Z,26.74
2018-08-04T12:19:57.527Z,26.87
2018-08-04T12:22:27.532Z,26.98
2018-08-04T12:24:57.511Z,27.11
2018-08-04T12:27:27.460Z,27.09
2018-08-04T12:29:57.469Z,26.97
2018-08-04T12:32:27.553Z,26.98
2018-08-04T12:34:57.627Z,27.12
2018-08-04T12:37:27.667Z,27.19
2018-08-04T12:39:57.592Z,27.15
2018-08-04T12:42:27.618Z,27.23
2018-08-04T12:44:57.547Z,27.30
2018-08-04T12:47:27.528Z,27.31
2018-08-04T12:49:57.996Z,27.23
2018-08-04T12:52:28.041Z,27.29
2018-08-04T12:54:58.387Z,27.10
2018-08-04T12:57:28.397Z,27.13
2018-08-04T12:59:58.472Z,27.13
2018-08-04T13:02:28.603Z,27.06
2018-08-04T13:04:58.604Z,27.12
2018-08-04T13:07:28.423Z,27.02
2018-08-04T13:09:58.510Z,26.97
2018-08-04T13:12:28.522Z,26.97
2018-08-04T13:14:58.452Z,26.96
2018-08-04T13:17:28.279Z,26.99
2018-08-04T13:19:58.255Z,26.88
2018-08-04T13:22:28.307Z,26.77
2018-08-04T13:24:58.179Z,26.79
2018-08-04T13:27:28.101Z,26.83
2018-08-04T13:29:58.053Z,26.90
2018-08-04T13:32:27.931Z,26.98
2018-08-04T13:34:58.006Z,27.10
2018-08-04T13:37:27.886Z,27.04
2018-08-04T13:39:57.739Z,26.94
2018-08-04T13:42:27.771Z,26.93
2018-08-04T13:44:57.756Z,26.89
2018-08-04T13:47:27.803Z,27.02
2018-08-04T13:49:58.308Z,26.88
2018-08-04T13:52:28.464Z,26.92
2018-08-04T13:54:58.278Z,27.13
2018-08-04T13:57:28.048Z,27.18
2018-08-04T13:59:58.011Z,27.22
2018-08-04T14:02:27.920Z,27.39
2018-08-04T14:04:58.024Z,27.34
2018-08-04T14:07:28.144Z,27.43
2018-08-04T14:09:58.111Z,27.49
2018-08-04T14:12:28.556Z,27.53
2018-08-04T14:14:58.815Z,27.56
2018-08-04T14:17:28.794Z,27.58
2018-08-04T14:19:58.796Z,27.45
2018-08-04T14:22:28.807Z,27.27
2018-08-04T14:24:58.954Z,27.37
2018-08-04T14:27:29.943Z,27.48
2018-08-04T14:30:00.029Z,27.52
2018-08-04T14:32:29.903Z,27.38
2018-08-04T14:35:00.349Z,27.35
2018-08-04T14:37:30.315Z,27.35
2018-08-04T14:40:00.581Z,27.49
2018-08-04T14:42:30.629Z,27.35
2018-08-04T14:45:00.864Z,27.29
2018-08-04T14:47:30.932Z,27.39
2018-08-04T14:50:01.030Z,27.42
2018-08-04T14:52:30.883Z,27.40
2018-08-04T14:55:01.092Z,27.36
2018-08-04T14:57:31.059Z,27.40
2018-08-04T15:00:00.883Z,27.39
2018-08-04T15:02:30.869Z,27.37
2018-08-04T15:05:01.035Z,27.46
2018-08-04T15:07:30.880Z,27.47
2018-08-04T15:10:00.758Z,27.31
2018-08-04T15:12:30.718Z,27.36
2018-08-04T15:15:00.704Z,27.34
2018-08-04T15:17:30.986Z,27.35
2018-08-04T15:20:01.192Z,27.35
2018-08-04T15:22:31.122Z,27.23
2018-08-04T15:25:01.325Z,27.10
2018-08-04T15:27:31.603Z,27.00
2018-08-04T15:30:01.748Z,26.86
2018-08-04T15:32:31.621Z,26.99
2018-08-04T15:35:01.888Z,26.88
2018-08-04T15:37:31.830Z,26.88
2018-08-04T15:40:01.771Z,26.78
2018-08-04T15:42:31.745Z,26.97
2018-08-04T15:45:01.675Z,26.90
2018-08-04T15:47:31.692Z,26.99
2018-08-04T15:50:01.729Z,26.94
2018-08-04T15:52:31.876Z,26.85
2018-08-04T15:55:01.808Z,26.67
2018-08-04T15:57:31.708Z,26.68
2018-08-04T16:00:01.930Z,26.68
2018-08-04T16:02:31.746Z,26.69
2018-08-04T16:05:01.820Z,26.73
2018-08-04T16:07:31.759Z,26.82
2018-08-04T16:10:01.696Z,26.70
2018-08-04T16:12:31.542Z,26.70
2018-08-04T16:15:01.410Z,26.73
2018-08-04T16:17:31.315Z,26.65
2018-08-04T16:20:01.167Z,26.74
2018-08-04T16:22:31.039Z,26.84
2018-08-04T16:25:01.019Z,26.87
2018-08-04T16:27:30.948Z,26.67
2018-08-04T16:30:00.947Z,26.64
2018-08-04T16:32:30.880Z,26.78
2018-08-04T16:35:00.964Z,26.85
2018-08-04T16:37:30.928Z,26.85
2018-08-04T16:40:00.909Z,26.77
2018-08-04T16:42:31.168Z,26.66
2018-08-04T16:45:01.381Z,26.61
2018-08-04T16:47:31.299Z,26.71
2018-08-04T16:50:01.175Z,26.75
2018-08-04T16:52:31.084Z,26.74
2018-08-04T16:55:01.036Z,26.88
2018-08-04T16:57:31.125Z,26.72
2018-08-04T17:00:01.210Z,26.58
2018-08-04T17:02:31.352Z,26.51
2018-08-04T17:05:01.269Z,26.70
2018-08-04T17:07:31.049Z,26.59
2018-08-04T17:10:01.004Z,26.61
2018-08-04T17:12:30.841Z,26.60
2018-08-04T17:15:00.814Z,26.50
2018-08-04T17:17:30.787Z,26.56
2018-08-04T17:20:00.658Z,26.51
2018-08-04T17:22:30.470Z,26.46
2018-08-04T17:25:00.352Z,26.43
2018-08-04T17:27:30.331Z,26.38
2018-08-04T17:30:00.192Z,26.49
2018-08-04T17:32:30.623Z,26.53
2018-08-04T17:35:00.496Z,26.52
2018-08-04T17:37:30.435Z,26.45
2018-08-04T17:40:00.242Z,26.59
2018-08-04T17:42:30.103Z,26.64
2018-08-04T17:44:59.890Z,26.51
2018-08-04T17:47:29.766Z,26.46
2018-08-04T17:49:59.887Z,26.40
2018-08-04T17:52:29.860Z,26.31
2018-08-04T17:54:59.819Z,26.41
2018-08-04T17:57:29.721Z,26.48
2018-08-04T17:59:59.872Z,26.44
2018-08-04T18:02:30.290Z,26.40
2018-08-04T18:05:01.493Z,26.44
2018-08-04T18:07:31.524Z,26.50
2018-08-04T18:10:02.278Z,26.52
2018-08-04T18:12:33.174Z,26.65
2018-08-04T18:15:03.025Z,26.64
2018-08-04T18:17:33.003Z,26.64
2018-08-04T18:20:02.836Z,26.65
2018-08-04T18:22:32.614Z,26.61
2018-08-04T18:25:02.355Z,26.60
2018-08-04T18:27:32.496Z,26.30
2018-08-04T18:30:02.421Z,26.36
2018-08-04T18:32:32.242Z,26.39
2018-08-04T18:35:02.136Z,26.19
2018-08-04T18:37:31.991Z,26.17
2018-08-04T18:40:01.798Z,26.25
2018-08-04T18:42:31.791Z,26.35
2018-08-04T18:45:01.651Z,26.25
2018-08-04T18:47:31.576Z,26.35
2018-08-04T18:50:01.541Z,26.34
2018-08-04T18:52:31.408Z,26.36
2018-08-04T18:55:01.375Z,26.26
2018-08-04T18:57:31.166Z,26.28
2018-08-04T19:00:01.032Z,26.22
2018-08-04T19:02:30.774Z,26.14
2018-08-04T19:05:00.683Z,26.20
2018-08-04T19:07:30.528Z,26.18
2018-08-04T19:10:00.353Z,26.19
2018-08-04T19:12:30.165Z,26.22
2018-08-04T19:14:59.932Z,26.17
2018-08-04T19:17:29.767Z,26.18
2018-08-04T19:19:59.564Z,26.16
2018-08-04T19:22:29.721Z,26.13
2018-08-04T19:24:59.535Z,26.05
2018-08-04T19:27:29.380Z,26.08
2018-08-04T19:29:59.318Z,26.10
2018-08-04T19:32:29.417Z,26.16
2018-08-04T19:34:59.274Z,26.16
2018-08-04T19:37:29.198Z,26.11
2018-08-04T19:39:59.038Z,26.09
2018-08-04T19:42:30.101Z,26.06
2018-08-04T19:45:00.169Z,26.06
2018-08-04T19:47:29.995Z,25.99
2018-08-04T19:49:59.807Z,25.99
2018-08-04T19:52:29.647Z,25.98
2018-08-04T19:54:59.566Z,25.94
2018-08-04T19:57:29.459Z,25.88
2018-08-04T19:59:59.392Z,25.81
2018-08-04T20:02:29.208Z,25.73
2018-08-04T20:04:59.120Z,25.72
2018-08-04T20:07:29.074Z,25.66
2018-08-04T20:09:58.944Z,25.57
2018-08-04T20:12:28.779Z,25.56
2018-08-04T20:14:58.868Z,25.53
2018-08-04T20:17:28.868Z,25.49
2018-08-04T20:19:58.682Z,25.42
2018-08-04T20:22:28.631Z,25.36
2018-08-04T20:24:58.522Z,25.33
2018-08-04T20:27:28.429Z,25.30
2018-08-04T20:29:58.394Z,25.23
2018-08-04T20:32:28.288Z,25.26
2018-08-04T20:34:58.164Z,25.22
2018-08-04T20:37:27.994Z,25.17
2018-08-04T20:39:57.820Z,25.19
2018-08-04T20:42:27.658Z,25.22
2018-08-04T20:44:57.584Z,25.22
2018-08-04T20:47:27.464Z,25.25
2018-08-04T20:49:57.425Z,25.19
2018-08-04T20:52:27.384Z,25.23
2018-08-04T20:54:57.344Z,25.19
2018-08-04T20:57:27.233Z,25.19
2018-08-04T20:59:56.997Z,25.14
2018-08-04T21:02:26.941Z,25.10
2018-08-04T21:04:56.758Z,25.07
2018-08-04T21:07:26.563Z,25.08
2018-08-04T21:09:56.376Z,25.03
2018-08-04T21:12:26.327Z,24.95
2018-08-04T21:14:56.320Z,24.89
2018-08-04T21:17:26.063Z,24.78
2018-08-04T21:19:56.043Z,24.60
2018-08-04T21:22:25.829Z,24.24
2018-08-04T21:24:55.750Z,23.98
2018-08-04T21:27:25.647Z,23.73
2018-08-04T21:29:55.540Z,23.58
2018-08-04T21:32:25.419Z,23.66
2018-08-04T21:34:55.251Z,23.81
2018-08-04T21:37:25.150Z,23.99
2018-08-04T21:39:55.113Z,24.19
2018-08-04T21:42:24.906Z,24.30
2018-08-04T21:44:54.808Z,24.32
2018-08-04T21:47:24.740Z,24.37
2018-08-04T21:49:54.672Z,24.42
2018-08-04T21:52:24.706Z,24.39
2018-08-04T21:54:54.693Z,24.44
2018-08-04T21:57:24.435Z,24.49
2018-08-04T21:59:54.411Z,24.49
2018-08-04T22:02:24.198Z,24.43
2018-08-04T22:04:54.215Z,24.29
2018-08-04T22:07:46.076Z,24.29
2018-08-04T22:10:16.320Z,24.28
2018-08-04T22:12:46.269Z,24.29
2018-08-04T22:15:16.810Z,24.30
2018-08-04T22:17:46.664Z,24.31
2018-08-04T22:20:17.679Z,24.25
2018-08-04T22:22:47.630Z,24.22
2018-08-04T22:25:19.743Z,24.19
2018-08-04T22:27:49.618Z,24.24
2018-08-04T22:30:20.708Z,24.24
2018-08-04T22:32:50.900Z,24.21
2018-08-04T22:35:20.926Z,24.21
2018-08-04T22:37:50.793Z,24.09
2018-08-04T22:40:21.665Z,24.04
2018-08-04T22:42:51.574Z,23.96
2018-08-04T22:46:24.851Z,23.83
2018-08-04T22:48:55.182Z,23.73
2018-08-04T22:51:26.930Z,23.69
2018-08-04T22:53:56.953Z,23.77
2018-08-04T22:56:27.066Z,23.81
2018-08-04T22:58:56.879Z,23.85
2018-08-04T23:01:26.682Z,23.78
2018-08-04T23:03:56.688Z,23.69
2018-08-04T23:06:26.486Z,23.74
2018-08-04T23:08:56.212Z,23.75
2018-08-04T23:11:26.191Z,23.70
2018-08-04T23:13:56.004Z,23.65
2018-08-04T23:16:25.878Z,23.68
2018-08-04T23:18:55.603Z,23.66
2018-08-04T23:21:25.452Z,23.62
2018-08-04T23:23:55.164Z,23.62
2018-08-04T23:26:24.951Z,23.60
2018-08-04T23:28:54.670Z,23.57
2018-08-04T23:31:24.551Z,23.54
2018-08-04T23:33:54.358Z,23.51
2018-08-04T23:36:24.194Z,23.55
2018-08-04T23:38:54.886Z,23.53
2018-08-04T23:41:24.708Z,23.54
2018-08-04T23:43:54.676Z,23.56
2018-08-04T23:46:24.479Z,23.33
2018-08-04T23:48:54.295Z,23.10
2018-08-04T23:51:24.124Z,23.14
2018-08-04T23:53:54.054Z,23.37
2018-08-04T23:56:24.388Z,23.52
2018-08-04T23:58:54.538Z,23.57
